Wednesday, March 4, 2015, 1:56 AM EST

KDOV, Dover Air Force Base

Location: Dover, DE, United States Lat: 39.133
Local Time: 1:56 AM EST ( 6:56 GMT) Lon: -75.467
Time Zone: US/Eastern Elev: 29 ft

Show me the last for .
Show Decoded

2015-03-04 00:58 METAR KDOV 040558Z AUTO 21017G23KT 8SM R01/5500FT OVC006 04/04 A2983 RMK AO2 PK
                 WND 20030/22 SLP105 P0002 60022 T00400040 10040 20030 57046 $ =
2015-03-04 00:23 METAR KDOV 040523Z AUTO 20020G30KT 8SM R01/5500FT OVC006 03/03 A2985 RMK AO2 $ =
2015-03-03 23:58 METAR KDOV 040458Z AUTO 20019G26KT 7SM R01/5500FT OVC007 02/02 A2987 RMK AO2 PK
                 WND 21026/52 PRESFR SLP118 P0006 T00200020 21026 400201042 $ =
2015-03-03 23:03 METAR KDOV 040403Z AUTO 20013KT 5SM R01/5000FT BR OVC007 00/00 A2993 RMK AO2 $ =
2015-03-03 22:58 METAR KDOV 040358Z AUTO 20012KT 5SM R01/4500FT BR OVC006 01/01 A2993 =
2015-03-03 22:53 METAR KDOV 040353Z AUTO 20012G15KT 5SM R01/4500FT BR OVC006 00/00 A2993 RMK AO2
                 =
2015-03-03 22:23 METAR KDOV 040323Z AUTO 21005KT 5SM R01/5000FT BR OVC006 00/00 A2995 RMK AO2 $ =
2015-03-03 22:18 METAR KDOV 040318Z AUTO 21004KT 5SM R01/4500FT BR OVC006 00/00 A2995 RMK AO2 $ =
2015-03-03 22:08 METAR KDOV 040308Z AUTO 21004KT 5SM R01/4500FT BR OVC007 00/00 A2996 RMK AO2 =
2015-03-03 21:58 METAR KDOV 040258Z AUTO 21004KT 5SM R01/5000FT BR OVC007 00/00 A2997 =
2015-03-03 21:55 METAR KDOV 040255Z AUTO 21003KT 5SM R01/5000FT BR OVC008 00/00 A2997 RMK AO2
                 RAE10 OVC V BKN $ =
2015-03-03 21:35 METAR KDOV 040235Z AUTO 21003KT 5SM R01/4500FT BR BKN009 OVC015 00/00 A2998 RMK
                 AO2 RAE10 CIG 009V015 $ =
2015-03-03 21:30 METAR KDOV 040230Z AUTO 21003KT 5SM R01/4500FT BR FEW007 OVC013 00/00 A2999 RMK
                 AO2 RAE10 CIG 006 RWY19 $ =
2015-03-03 21:10 METAR KDOV 040210Z AUTO 20002KT 6SM R01/5000FT BR OVC017 00/00 A2999 RMK AO2
                 RAE10 =
2015-03-03 20:58 METAR KDOV 040158Z AUTO 19002KT 6SM R01/5000FT -RA BR OVC018 00/00 A3000 =
2015-03-03 20:41 METAR KDOV 040141Z AUTO 18002KT 5SM R01/4500FT -RA BR SCT007 OVC020 00/00 A3002
                 RMK AO2 RAE0058UPB0058E22RAB22 CIG 007V020 CIG 004 RWY19 PRESFR $ =
2015-03-03 20:26 METAR KDOV 040126Z AUTO 19001KT 3SM R01/4000FT -RA BR OVC007 00/00 A3004 RMK AO2
                 RAE0058UPB0058E22RAB22 =
2015-03-03 19:58 METAR KDOV 040058Z 17002KT 4SM R01/4500FT -RA BR OVC007 00/00 A3005 RMK AO2A
                 PRESFR SLP179 =
2015-03-03 18:58 METAR KDOV 032358Z 15001KT 6SM R01/5000FT -FZRA BR BKN007 BKN012 OVC029 00/00
                 A3010 RMK AO2A CIG 007V031 BKN007 V SCT SLP196 P0002 60008 T10031003 11001 21010
                 57034 $ =
2015-03-03 18:40 METAR KDOV 032340Z 00000KT 7SM R01/5000FT -FZRA SCT007 OVC031 00/00 A3012 RMK
                 AO2A =
2015-03-03 17:58 METAR KDOV 032258Z 14002KT 6SM -FZRA BR OVC034 00/00 A3013 =
2015-03-03 17:53 METAR KDOV 032253Z COR 14003KT 6SM -FZRA BR OVC034 00/00 A3013 RMK AO2A COR 2257
                 =
2015-03-03 16:58 METAR KDOV 032158Z AUTO 12004KT 6SM -FZRA BR OVC034 M01/M01 A3016 =
2015-03-03 15:58 METAR KDOV 032058Z AUTO 12007KT 6SM -FZRA BR OVC036 M01/M01 A3020 =
2015-03-03 14:58 METAR KDOV 031958Z AUTO 11007KT 9SM -FZRA OVC041 M01/M02 A3026 RMK AO2
                 UPB1858E27FZRAB27 SLP251 P0000 T10101016 $ =
2015-03-03 14:27 METAR KDOV 031927Z 12004KT 10SM -FZRA BKN046 OVC055 M01/M03 A3028 RMK AO2A
                 UPB1858E27FZRAB27 =
2015-03-03 13:58 METAR KDOV 031858Z 12009KT 10SM -PL OVC050 M01/M04 A3028 =
2015-03-03 13:47 METAR KDOV 031847Z COR AUTO 11009KT 10SM -PL BKN050 00/M05 A3029 =
2015-03-03 12:58 METAR KDOV 031758Z AUTO 11009KT 10SM SCT090 BKN210 00/M06 A3035 =
2015-03-03 11:58 METAR KDOV 031658Z AUTO 12009KT 10SM FEW100 SCT190 M01/M08 A3039 =
2015-03-03 10:58 METAR KDOV 031558Z AUTO 11007KT 10SM SCT090 SCT200 M01/M09 A3043 =
2015-03-03 09:58 METAR KDOV 031458Z AUTO 11007KT 10SM OVC100 M02/M10 A3045 =
2015-03-03 08:58 METAR KDOV 031358Z AUTO 07005KT 10SM BKN110 M02/M10 A3047 =
2015-03-03 07:58 METAR KDOV 031258Z AUTO 04009KT 10SM BKN130 M02/M10 A3045 =
2015-03-03 06:58 METAR KDOV 031158Z AUTO 05008KT 10SM FEW140 M03/M10 A3045 RMK AO2 SLP315 70030
                 T10321096 11017 21042 50014 $ =
2015-03-03 05:58 METAR KDOV 031058Z AUTO 04007KT 10SM CLR M03/M09 A3045 =
2015-03-03 04:58 METAR KDOV 030958Z AUTO 36007KT 10SM CLR M03/M07 A3044 =
2015-03-03 03:58 METAR KDOV 030858Z AUTO 34004KT 10SM CLR M04/M08 A3041 =
2015-03-03 02:58 METAR KDOV 030758Z AUTO 32005KT 10SM CLR M03/M08 A3039 =
2015-03-03 01:58 METAR KDOV 030658Z AUTO 29008KT 10SM CLR M02/M09 A3040 RMK AO2 SLP298 T10201087
                 $ =

Support USWX by starting your Amazon purchase here.